• Join FlightAware (Why Join?)
  • Login
  • US Flag 
06:58AM EDT


 

Airport Tracker/Info


-or-


 

Live Flight TrackerFlight Track Log ✈ N85JE ✈ 21-Oct-2013 ✈ KOPF - KAPF

Flight Track Log - Related Links

Times and Time Zones

All times are in EDT time to prevent confusion due to time zone crossing. See the N85JE flight status page for this flight to view local times or setup timezone preferences in your user account.

Time Position Orientation Groundspeed Altitude Reporting Facility
EDT Latitude Longitude Course Direction KTS MPH feet Rate Location/Type
12:57PM 25.9164 -80.2247 211° Southwest 224 258 2,000  Level Miami Center
12:59PM 25.9392 -80.1331 75° East 214 246 2,600 780 Climbing Miami Center
01:00PM 25.9778 -80.1847 310° West 126 145 4,200 2,100 Climbing Miami Center
01:01PM 25.9842 -80.2706 275° West 141 162 6,800 1,860 Climbing Miami Center
01:02PM 25.9944 -80.3608 277° West 235 270 8,000 780 Climbing Miami Center
01:03PM 25.9827 -80.7280 211° Southwest  Level Estimated
01:03PM 26.0028 -80.4536 276° West 284 327 8,400  Level Miami Center
01:04PM 26.0150 -80.5464 278° West 304 350 9,700 780 Climbing Miami Center
01:05PM 26.0250 -80.6439 277° West 315 362 10,000 120 Climbing Miami Center
01:06PM 26.0367 -80.7644 276° West 340 391 10,000 300 Level Miami Center
01:07PM 26.0503 -80.8711 278° West 351 404 10,600 1,200 Climbing Miami Center
01:08PM 26.0642 -80.9733 279° West 351 404 12,400 900 Climbing Miami Center
01:09PM 26.0739 -81.0756 276° West 356 410 12,500  Climbing Miami Center
01:10PM 26.0869 -81.2008 277° West 361 415 12,500  Level Miami Center
01:11PM 26.1003 -81.3100 278° West 368 423 12,500 -240 Level Miami Center
01:12PM 26.0969 -81.4208 268° West 362 417 12,100 -1,080 Descending Miami Center
01:13PM 26.0894 -81.5247 265° West 345 397 10,400 -2,040 Descending Miami Center
01:14PM 26.0764 -81.6097 260° West 310 357 8,100 -2,580 Descending Miami Center
01:15PM 26.0631 -81.6947 260° West 289 333 5,300 -2,820 Descending Miami Center
01:16PM 26.0731 -81.7692 279° West 246 283 2,500 -1,920 Descending Miami Center
01:17PM 26.1258 -81.7575 11° North 166 191 1,500 -600 Descending Miami Center
01:18PM 26.1581 -81.7239 43° Northeast 125 144 1,300 -420 Descending Miami Center
01:19PM 26.1758 -81.7525 305° West 94 108 700 -600 Descending Miami Center
01:21PM 26.1500 -81.7667 283° West  Level FlightAware Approximate
01:28PM 26.1524 -81.7756 283° West  Level Estimated
01:29PM 26.1524 -81.7756 283° West  Level Estimated
01:30PM 26.1524 -81.7756 283° West  Level Estimated